sensor_id;sensor_type;location;lat;lon;timestamp;temperature;humidity
12568;DHT22;6349;50.904;6.136;2022-09-16T00:01:19;13.70;99.90
12568;DHT22;6349;50.904;6.136;2022-09-16T00:03:20;13.70;99.90
12568;DHT22;6349;50.904;6.136;2022-09-16T00:05:21;13.70;99.90
12568;DHT22;6349;50.904;6.136;2022-09-16T00:07:21;13.70;99.90
12568;DHT22;6349;50.904;6.136;2022-09-16T00:09:22;13.70;99.90
12568;DHT22;6349;50.904;6.136;2022-09-16T00:11:23;13.70;99.90
12568;DHT22;6349;50.904;6.136;2022-09-16T00:13:24;13.70;99.90
12568;DHT22;6349;50.904;6.136;2022-09-16T00:15:24;13.70;99.90
12568;DHT22;6349;50.904;6.136;2022-09-16T00:17:25;13.60;99.90
12568;DHT22;6349;50.904;6.136;2022-09-16T00:19:26;13.60;99.90
12568;DHT22;6349;50.904;6.136;2022-09-16T00:21:28;13.60;99.90
12568;DHT22;6349;50.904;6.136;2022-09-16T00:23:29;13.60;99.90
12568;DHT22;6349;50.904;6.136;2022-09-16T00:25:31;13.60;99.90
12568;DHT22;6349;50.904;6.136;2022-09-16T00:27:32;13.60;99.90
12568;DHT22;6349;50.904;6.136;2022-09-16T00:29:32;13.60;99.90
12568;DHT22;6349;50.904;6.136;2022-09-16T00:31:33;13.60;99.90
12568;DHT22;6349;50.904;6.136;2022-09-16T00:33:34;13.60;99.90
12568;DHT22;6349;50.904;6.136;2022-09-16T00:35:34;13.60;99.90
12568;DHT22;6349;50.904;6.136;2022-09-16T00:37:35;13.60;99.90
12568;DHT22;6349;50.904;6.136;2022-09-16T00:39:36;13.60;99.90
12568;DHT22;6349;50.904;6.136;2022-09-16T00:41:37;13.60;99.90
12568;DHT22;6349;50.904;6.136;2022-09-16T00:43:48;13.50;99.90
12568;DHT22;6349;50.904;6.136;2022-09-16T00:45:57;13.60;99.90
12568;DHT22;6349;50.904;6.136;2022-09-16T00:48:04;13.60;99.90
12568;DHT22;6349;50.904;6.136;2022-09-16T00:50:09;13.50;99.90
12568;DHT22;6349;50.904;6.136;2022-09-16T00:52:11;13.50;99.90
12568;DHT22;6349;50.904;6.136;2022-09-16T00:54:13;13.50;99.90
12568;DHT22;6349;50.904;6.136;2022-09-16T00:56:15;13.50;99.90
12568;DHT22;6349;50.904;6.136;2022-09-16T00:58:38;13.40;99.90
12568;DHT22;6349;50.904;6.136;2022-09-16T01:00:40;13.50;99.90
12568;DHT22;6349;50.904;6.136;2022-09-16T01:02:43;13.40;99.90
12568;DHT22;6349;50.904;6.136;2022-09-16T01:04:49;13.50;99.90
12568;DHT22;6349;50.904;6.136;2022-09-16T01:06:51;13.40;99.90
12568;DHT22;6349;50.904;6.136;2022-09-16T01:08:53;13.40;99.90
12568;DHT22;6349;50.904;6.136;2022-09-16T01:10:54;13.40;99.90
12568;DHT22;6349;50.904;6.136;2022-09-16T01:12:58;13.40;99.90
12568;DHT22;6349;50.904;6.136;2022-09-16T01:15:00;13.40;99.90
12568;DHT22;6349;50.904;6.136;2022-09-16T01:24:33;13.30;99.90
12568;DHT22;6349;50.904;6.136;2022-09-16T01:27:17;13.30;99.90
12568;DHT22;6349;50.904;6.136;2022-09-16T01:29:44;13.30;99.90
12568;DHT22;6349;50.904;6.136;2022-09-16T01:32:13;13.30;99.90
12568;DHT22;6349;50.904;6.136;2022-09-16T01:34:57;13.20;99.90
12568;DHT22;6349;50.904;6.136;2022-09-16T01:39:59;13.20;99.90
12568;DHT22;6349;50.904;6.136;2022-09-16T01:44:22;13.20;99.90
12568;DHT22;6349;50.904;6.136;2022-09-16T01:46:37;13.20;99.90
12568;DHT22;6349;50.904;6.136;2022-09-16T01:48:52;13.10;99.90
12568;DHT22;6349;50.904;6.136;2022-09-16T01:51:17;13.10;99.90
12568;DHT22;6349;50.904;6.136;2022-09-16T01:55:36;13.10;99.90
12568;DHT22;6349;50.904;6.136;2022-09-16T01:57:58;13.10;99.90
12568;DHT22;6349;50.904;6.136;2022-09-16T02:00:09;13.10;99.90
12568;DHT22;6349;50.904;6.136;2022-09-16T02:02:20;13.00;99.90
12568;DHT22;6349;50.904;6.136;2022-09-16T02:04:26;13.00;99.90
12568;DHT22;6349;50.904;6.136;2022-09-16T02:06:28;13.00;99.90
12568;DHT22;6349;50.904;6.136;2022-09-16T02:08:45;13.00;99.90
12568;DHT22;6349;50.904;6.136;2022-09-16T02:10:51;13.00;99.90
12568;DHT22;6349;50.904;6.136;2022-09-16T02:12:59;13.00;99.90
12568;DHT22;6349;50.904;6.136;2022-09-16T02:15:06;13.00;99.90
12568;DHT22;6349;50.904;6.136;2022-09-16T02:17:10;13.00;99.90
12568;DHT22;6349;50.904;6.136;2022-09-16T02:19:16;13.00;99.90
12568;DHT22;6349;50.904;6.136;2022-09-16T02:21:20;13.00;99.90
12568;DHT22;6349;50.904;6.136;2022-09-16T02:23:24;13.10;99.90
12568;DHT22;6349;50.904;6.136;2022-09-16T02:25:27;13.00;99.90
12568;DHT22;6349;50.904;6.136;2022-09-16T02:27:29;13.00;99.90
12568;DHT22;6349;50.904;6.136;2022-09-16T02:29:36;13.00;99.90
12568;DHT22;6349;50.904;6.136;2022-09-16T02:31:40;13.00;99.90
12568;DHT22;6349;50.904;6.136;2022-09-16T02:33:47;13.00;99.90
12568;DHT22;6349;50.904;6.136;2022-09-16T02:35:53;12.90;99.90
12568;DHT22;6349;50.904;6.136;2022-09-16T02:38:02;12.90;99.90
12568;DHT22;6349;50.904;6.136;2022-09-16T02:40:10;12.90;99.90
12568;DHT22;6349;50.904;6.136;2022-09-16T02:42:12;12.90;99.90
12568;DHT22;6349;50.904;6.136;2022-09-16T02:44:12;12.90;99.90
12568;DHT22;6349;50.904;6.136;2022-09-16T02:46:23;12.90;99.90
12568;DHT22;6349;50.904;6.136;2022-09-16T02:51:08;12.90;99.90
12568;DHT22;6349;50.904;6.136;2022-09-16T02:53:39;12.90;99.90
12568;DHT22;6349;50.904;6.136;2022-09-16T02:55:51;12.90;99.90
12568;DHT22;6349;50.904;6.136;2022-09-16T02:57:53;12.80;99.90
12568;DHT22;6349;50.904;6.136;2022-09-16T02:59:54;12.80;99.90
12568;DHT22;6349;50.904;6.136;2022-09-16T03:01:57;12.80;99.90
12568;DHT22;6349;50.904;6.136;2022-09-16T03:03:58;12.80;99.90
12568;DHT22;6349;50.904;6.136;2022-09-16T03:06:20;12.70;99.90
12568;DHT22;6349;50.904;6.136;2022-09-16T03:08:21;12.80;99.90
12568;DHT22;6349;50.904;6.136;2022-09-16T03:10:26;12.80;99.90
12568;DHT22;6349;50.904;6.136;2022-09-16T03:13:15;12.80;99.90
12568;DHT22;6349;50.904;6.136;2022-09-16T03:15:26;12.80;99.90
12568;DHT22;6349;50.904;6.136;2022-09-16T03:25:17;12.80;99.90
12568;DHT22;6349;50.904;6.136;2022-09-16T03:27:27;12.80;99.90
12568;DHT22;6349;50.904;6.136;2022-09-16T03:29:45;12.70;99.90
12568;DHT22;6349;50.904;6.136;2022-09-16T03:31:59;12.80;99.90
12568;DHT22;6349;50.904;6.136;2022-09-16T03:34:31;12.70;99.90
12568;DHT22;6349;50.904;6.136;2022-09-16T03:36:36;12.70;99.90
12568;DHT22;6349;50.904;6.136;2022-09-16T03:38:40;12.70;99.90
12568;DHT22;6349;50.904;6.136;2022-09-16T03:40:41;12.60;99.90
12568;DHT22;6349;50.904;6.136;2022-09-16T03:42:43;12.60;99.90
12568;DHT22;6349;50.904;6.136;2022-09-16T03:44:44;12.60;99.90
12568;DHT22;6349;50.904;6.136;2022-09-16T03:46:44;12.60;99.90
12568;DHT22;6349;50.904;6.136;2022-09-16T03:48:45;12.60;99.90
12568;DHT22;6349;50.904;6.136;2022-09-16T03:50:46;12.50;99.90
12568;DHT22;6349;50.904;6.136;2022-09-16T03:52:46;12.50;99.90
12568;DHT22;6349;50.904;6.136;2022-09-16T03:54:47;12.50;99.90
12568;DHT22;6349;50.904;6.136;2022-09-16T03:56:47;12.40;99.90
12568;DHT22;6349;50.904;6.136;2022-09-16T03:58:48;12.40;99.90
12568;DHT22;6349;50.904;6.136;2022-09-16T04:00:49;12.40;99.90
12568;DHT22;6349;50.904;6.136;2022-09-16T04:02:50;12.40;99.90
12568;DHT22;6349;50.904;6.136;2022-09-16T04:04:51;12.40;99.90
12568;DHT22;6349;50.904;6.136;2022-09-16T04:06:51;12.40;99.90
12568;DHT22;6349;50.904;6.136;2022-09-16T04:08:52;12.40;99.90
12568;DHT22;6349;50.904;6.136;2022-09-16T04:10:57;12.40;99.90
12568;DHT22;6349;50.904;6.136;2022-09-16T04:12:58;12.40;99.90
12568;DHT22;6349;50.904;6.136;2022-09-16T04:14:59;12.40;99.90
12568;DHT22;6349;50.904;6.136;2022-09-16T04:17:00;12.40;99.90
12568;DHT22;6349;50.904;6.136;2022-09-16T04:19:00;12.40;99.90
12568;DHT22;6349;50.904;6.136;2022-09-16T04:21:02;12.40;99.90
12568;DHT22;6349;50.904;6.136;2022-09-16T04:23:04;12.40;99.90
12568;DHT22;6349;50.904;6.136;2022-09-16T04:25:05;12.40;99.90
12568;DHT22;6349;50.904;6.136;2022-09-16T04:27:06;12.40;99.90
12568;DHT22;6349;50.904;6.136;2022-09-16T04:29:07;12.40;99.90
12568;DHT22;6349;50.904;6.136;2022-09-16T04:31:11;12.40;99.90
12568;DHT22;6349;50.904;6.136;2022-09-16T04:33:12;12.40;99.90
12568;DHT22;6349;50.904;6.136;2022-09-16T04:35:12;12.40;99.90
12568;DHT22;6349;50.904;6.136;2022-09-16T04:37:13;12.40;99.90
12568;DHT22;6349;50.904;6.136;2022-09-16T04:39:14;12.40;99.90
12568;DHT22;6349;50.904;6.136;2022-09-16T04:41:19;12.40;99.90
12568;DHT22;6349;50.904;6.136;2022-09-16T04:43:20;12.40;99.90
12568;DHT22;6349;50.904;6.136;2022-09-16T04:45:20;12.40;99.90
12568;DHT22;6349;50.904;6.136;2022-09-16T04:47:21;12.40;99.90
12568;DHT22;6349;50.904;6.136;2022-09-16T04:49:22;12.40;99.90
12568;DHT22;6349;50.904;6.136;2022-09-16T04:51:24;12.40;99.90
12568;DHT22;6349;50.904;6.136;2022-09-16T04:53:26;12.40;99.90
12568;DHT22;6349;50.904;6.136;2022-09-16T04:55:27;12.40;99.90
12568;DHT22;6349;50.904;6.136;2022-09-16T04:57:30;12.30;99.90
12568;DHT22;6349;50.904;6.136;2022-09-16T04:59:31;12.30;99.90
12568;DHT22;6349;50.904;6.136;2022-09-16T05:01:36;12.20;99.90
12568;DHT22;6349;50.904;6.136;2022-09-16T05:03:40;12.30;99.90
12568;DHT22;6349;50.904;6.136;2022-09-16T05:05:41;12.30;99.90
12568;DHT22;6349;50.904;6.136;2022-09-16T05:07:42;12.30;99.90
12568;DHT22;6349;50.904;6.136;2022-09-16T05:09:42;12.20;99.90
12568;DHT22;6349;50.904;6.136;2022-09-16T05:11:43;12.20;99.90
12568;DHT22;6349;50.904;6.136;2022-09-16T05:13:44;12.20;99.90
12568;DHT22;6349;50.904;6.136;2022-09-16T05:15:45;12.20;99.90
12568;DHT22;6349;50.904;6.136;2022-09-16T05:17:46;12.20;99.90
12568;DHT22;6349;50.904;6.136;2022-09-16T05:19:47;12.10;99.90
12568;DHT22;6349;50.904;6.136;2022-09-16T05:21:47;12.10;99.90
12568;DHT22;6349;50.904;6.136;2022-09-16T05:23:48;12.20;99.90
12568;DHT22;6349;50.904;6.136;2022-09-16T05:25:49;12.10;99.90
12568;DHT22;6349;50.904;6.136;2022-09-16T05:27:50;12.10;99.90
12568;DHT22;6349;50.904;6.136;2022-09-16T05:29:50;12.20;99.90
12568;DHT22;6349;50.904;6.136;2022-09-16T05:31:52;12.20;99.90
12568;DHT22;6349;50.904;6.136;2022-09-16T05:33:57;12.10;99.90
12568;DHT22;6349;50.904;6.136;2022-09-16T05:36:04;12.20;99.90
12568;DHT22;6349;50.904;6.136;2022-09-16T05:38:05;12.20;99.90
12568;DHT22;6349;50.904;6.136;2022-09-16T05:40:06;12.20;99.90
12568;DHT22;6349;50.904;6.136;2022-09-16T05:42:08;12.10;99.90
12568;DHT22;6349;50.904;6.136;2022-09-16T05:44:09;12.20;99.90
12568;DHT22;6349;50.904;6.136;2022-09-16T05:46:23;12.20;99.90
12568;DHT22;6349;50.904;6.136;2022-09-16T05:48:24;12.20;99.90
12568;DHT22;6349;50.904;6.136;2022-09-16T05:50:26;12.20;99.90
12568;DHT22;6349;50.904;6.136;2022-09-16T05:52:27;12.20;99.90
12568;DHT22;6349;50.904;6.136;2022-09-16T05:54:28;12.20;99.90
12568;DHT22;6349;50.904;6.136;2022-09-16T05:56:30;12.30;99.90
12568;DHT22;6349;50.904;6.136;2022-09-16T05:58:34;12.30;99.90
12568;DHT22;6349;50.904;6.136;2022-09-16T06:00:34;12.20;99.90
12568;DHT22;6349;50.904;6.136;2022-09-16T06:02:35;12.10;99.90
12568;DHT22;6349;50.904;6.136;2022-09-16T06:04:36;12.20;99.90
12568;DHT22;6349;50.904;6.136;2022-09-16T06:06:44;12.20;99.90
12568;DHT22;6349;50.904;6.136;2022-09-16T06:08:45;12.30;99.90
12568;DHT22;6349;50.904;6.136;2022-09-16T06:10:46;12.30;99.90
12568;DHT22;6349;50.904;6.136;2022-09-16T06:12:47;12.30;99.90
12568;DHT22;6349;50.904;6.136;2022-09-16T06:14:47;12.30;99.90
12568;DHT22;6349;50.904;6.136;2022-09-16T06:16:48;12.30;99.90
12568;DHT22;6349;50.904;6.136;2022-09-16T06:18:49;12.40;99.90
12568;DHT22;6349;50.904;6.136;2022-09-16T06:20:50;12.30;99.90
12568;DHT22;6349;50.904;6.136;2022-09-16T06:22:51;12.30;99.90
12568;DHT22;6349;50.904;6.136;2022-09-16T06:24:52;12.40;99.90
12568;DHT22;6349;50.904;6.136;2022-09-16T06:26:53;12.40;99.90
12568;DHT22;6349;50.904;6.136;2022-09-16T06:28:54;12.30;99.90
12568;DHT22;6349;50.904;6.136;2022-09-16T06:31:05;12.40;99.90
12568;DHT22;6349;50.904;6.136;2022-09-16T06:33:06;12.40;99.90
12568;DHT22;6349;50.904;6.136;2022-09-16T06:35:07;12.40;99.90
12568;DHT22;6349;50.904;6.136;2022-09-16T06:37:09;12.50;99.90
12568;DHT22;6349;50.904;6.136;2022-09-16T06:39:14;12.50;99.90
12568;DHT22;6349;50.904;6.136;2022-09-16T06:41:16;12.50;99.90
12568;DHT22;6349;50.904;6.136;2022-09-16T06:43:17;12.50;99.90
12568;DHT22;6349;50.904;6.136;2022-09-16T06:45:18;12.50;99.90
12568;DHT22;6349;50.904;6.136;2022-09-16T06:47:19;12.60;99.90
12568;DHT22;6349;50.904;6.136;2022-09-16T06:49:19;12.60;99.90
12568;DHT22;6349;50.904;6.136;2022-09-16T06:51:22;12.50;99.90
12568;DHT22;6349;50.904;6.136;2022-09-16T06:53:23;12.60;99.90
12568;DHT22;6349;50.904;6.136;2022-09-16T06:55:24;12.50;99.90
12568;DHT22;6349;50.904;6.136;2022-09-16T06:57:25;12.60;99.90
12568;DHT22;6349;50.904;6.136;2022-09-16T06:59:25;12.60;99.90
12568;DHT22;6349;50.904;6.136;2022-09-16T07:01:28;12.70;99.90
12568;DHT22;6349;50.904;6.136;2022-09-16T07:03:29;12.60;99.90
12568;DHT22;6349;50.904;6.136;2022-09-16T07:05:30;12.70;99.90
12568;DHT22;6349;50.904;6.136;2022-09-16T07:07:30;12.70;99.90
12568;DHT22;6349;50.904;6.136;2022-09-16T07:09:31;12.70;99.90
12568;DHT22;6349;50.904;6.136;2022-09-16T07:11:32;12.80;99.90
12568;DHT22;6349;50.904;6.136;2022-09-16T07:13:33;12.80;99.90
12568;DHT22;6349;50.904;6.136;2022-09-16T07:15:34;12.80;99.90
12568;DHT22;6349;50.904;6.136;2022-09-16T07:17:34;12.90;99.90
12568;DHT22;6349;50.904;6.136;2022-09-16T07:19:35;12.90;99.90
12568;DHT22;6349;50.904;6.136;2022-09-16T07:21:36;13.00;99.90
12568;DHT22;6349;50.904;6.136;2022-09-16T07:23:37;13.00;99.90
12568;DHT22;6349;50.904;6.136;2022-09-16T07:25:38;13.10;99.90
12568;DHT22;6349;50.904;6.136;2022-09-16T07:27:38;13.10;99.90
12568;DHT22;6349;50.904;6.136;2022-09-16T07:29:39;13.10;99.90
12568;DHT22;6349;50.904;6.136;2022-09-16T07:31:40;13.10;99.90
12568;DHT22;6349;50.904;6.136;2022-09-16T07:33:43;13.10;99.90
12568;DHT22;6349;50.904;6.136;2022-09-16T07:35:44;13.10;99.90
12568;DHT22;6349;50.904;6.136;2022-09-16T07:37:45;13.10;99.90
12568;DHT22;6349;50.904;6.136;2022-09-16T07:39:45;13.10;99.90
12568;DHT22;6349;50.904;6.136;2022-09-16T07:41:46;13.10;99.90
12568;DHT22;6349;50.904;6.136;2022-09-16T07:43:48;13.20;99.90
12568;DHT22;6349;50.904;6.136;2022-09-16T07:45:58;13.20;99.90
12568;DHT22;6349;50.904;6.136;2022-09-16T07:47:59;13.20;99.90
12568;DHT22;6349;50.904;6.136;2022-09-16T07:49:59;13.20;99.90
12568;DHT22;6349;50.904;6.136;2022-09-16T07:52:00;13.20;99.90
12568;DHT22;6349;50.904;6.136;2022-09-16T07:54:06;13.30;99.90
12568;DHT22;6349;50.904;6.136;2022-09-16T07:56:18;13.30;99.90
12568;DHT22;6349;50.904;6.136;2022-09-16T07:58:19;13.20;99.90
12568;DHT22;6349;50.904;6.136;2022-09-16T08:00:20;13.30;99.90
12568;DHT22;6349;50.904;6.136;2022-09-16T08:02:21;13.30;99.90
12568;DHT22;6349;50.904;6.136;2022-09-16T08:04:22;13.30;99.90
12568;DHT22;6349;50.904;6.136;2022-09-16T08:06:26;13.40;99.90
12568;DHT22;6349;50.904;6.136;2022-09-16T08:08:27;13.40;99.90
12568;DHT22;6349;50.904;6.136;2022-09-16T08:10:28;13.40;99.90
12568;DHT22;6349;50.904;6.136;2022-09-16T08:12:28;13.40;99.90
12568;DHT22;6349;50.904;6.136;2022-09-16T08:14:31;13.50;99.90
12568;DHT22;6349;50.904;6.136;2022-09-16T08:16:32;13.50;99.90
12568;DHT22;6349;50.904;6.136;2022-09-16T08:18:33;13.60;99.90
12568;DHT22;6349;50.904;6.136;2022-09-16T08:20:35;13.70;99.90
12568;DHT22;6349;50.904;6.136;2022-09-16T08:22:36;13.70;99.90
12568;DHT22;6349;50.904;6.136;2022-09-16T08:24:37;13.80;99.90
12568;DHT22;6349;50.904;6.136;2022-09-16T08:26:37;13.80;99.90
12568;DHT22;6349;50.904;6.136;2022-09-16T08:28:40;13.90;99.90
12568;DHT22;6349;50.904;6.136;2022-09-16T08:30:42;13.90;99.90
12568;DHT22;6349;50.904;6.136;2022-09-16T08:32:42;13.90;99.90
12568;DHT22;6349;50.904;6.136;2022-09-16T08:34:43;13.90;99.90
12568;DHT22;6349;50.904;6.136;2022-09-16T08:36:44;13.90;99.90
12568;DHT22;6349;50.904;6.136;2022-09-16T08:38:46;14.00;99.90
12568;DHT22;6349;50.904;6.136;2022-09-16T08:40:47;14.00;99.90
12568;DHT22;6349;50.904;6.136;2022-09-16T08:45:26;14.00;99.90
12568;DHT22;6349;50.904;6.136;2022-09-16T08:47:39;14.10;99.90
12568;DHT22;6349;50.904;6.136;2022-09-16T08:49:44;14.10;99.90
12568;DHT22;6349;50.904;6.136;2022-09-16T08:51:46;14.10;99.90
12568;DHT22;6349;50.904;6.136;2022-09-16T08:54:00;14.20;99.90
12568;DHT22;6349;50.904;6.136;2022-09-16T08:56:06;14.30;99.90
12568;DHT22;6349;50.904;6.136;2022-09-16T08:58:15;14.30;99.90
12568;DHT22;6349;50.904;6.136;2022-09-16T09:00:17;14.30;99.90
12568;DHT22;6349;50.904;6.136;2022-09-16T09:02:45;14.30;99.90
12568;DHT22;6349;50.904;6.136;2022-09-16T09:04:47;14.30;99.90
12568;DHT22;6349;50.904;6.136;2022-09-16T09:09:41;14.40;99.90
12568;DHT22;6349;50.904;6.136;2022-09-16T09:11:52;14.50;99.90
12568;DHT22;6349;50.904;6.136;2022-09-16T09:19:23;14.60;99.90
12568;DHT22;6349;50.904;6.136;2022-09-16T09:24:40;14.60;99.90
12568;DHT22;6349;50.904;6.136;2022-09-16T09:26:49;14.60;99.90
12568;DHT22;6349;50.904;6.136;2022-09-16T09:36:54;14.70;99.90
12568;DHT22;6349;50.904;6.136;2022-09-16T09:41:17;14.70;99.90
12568;DHT22;6349;50.904;6.136;2022-09-16T09:43:41;14.70;99.90
12568;DHT22;6349;50.904;6.136;2022-09-16T09:46:25;14.80;99.90
12568;DHT22;6349;50.904;6.136;2022-09-16T09:48:36;14.80;99.90
12568;DHT22;6349;50.904;6.136;2022-09-16T09:50:44;14.90;99.90
12568;DHT22;6349;50.904;6.136;2022-09-16T09:55:26;14.90;99.90
12568;DHT22;6349;50.904;6.136;2022-09-16T09:57:36;14.90;99.90
12568;DHT22;6349;50.904;6.136;2022-09-16T10:00:03;14.90;99.90
12568;DHT22;6349;50.904;6.136;2022-09-16T10:02:15;14.90;99.90
12568;DHT22;6349;50.904;6.136;2022-09-16T10:04:16;14.90;99.90
12568;DHT22;6349;50.904;6.136;2022-09-16T10:06:24;14.90;99.90
12568;DHT22;6349;50.904;6.136;2022-09-16T10:08:29;14.90;99.90
12568;DHT22;6349;50.904;6.136;2022-09-16T10:10:33;14.90;99.90
12568;DHT22;6349;50.904;6.136;2022-09-16T10:12:35;15.00;99.90
12568;DHT22;6349;50.904;6.136;2022-09-16T10:14:37;15.10;99.90
12568;DHT22;6349;50.904;6.136;2022-09-16T10:16:51;15.10;99.90
12568;DHT22;6349;50.904;6.136;2022-09-16T10:19:26;15.10;99.90
12568;DHT22;6349;50.904;6.136;2022-09-16T10:21:16;15.10;99.90
12568;DHT22;6349;50.904;6.136;2022-09-16T10:23:22;15.10;99.90
12568;DHT22;6349;50.904;6.136;2022-09-16T10:25:23;15.10;99.90
12568;DHT22;6349;50.904;6.136;2022-09-16T10:27:28;15.10;99.90
12568;DHT22;6349;50.904;6.136;2022-09-16T10:29:29;15.20;99.90
12568;DHT22;6349;50.904;6.136;2022-09-16T10:31:35;15.20;99.90
12568;DHT22;6349;50.904;6.136;2022-09-16T10:33:42;15.20;99.90
12568;DHT22;6349;50.904;6.136;2022-09-16T10:35:52;15.30;99.90
12568;DHT22;6349;50.904;6.136;2022-09-16T10:37:58;15.40;99.90
12568;DHT22;6349;50.904;6.136;2022-09-16T10:40:01;15.50;99.90
12568;DHT22;6349;50.904;6.136;2022-09-16T10:42:04;15.60;99.90
12568;DHT22;6349;50.904;6.136;2022-09-16T10:46:36;15.70;99.90
12568;DHT22;6349;50.904;6.136;2022-09-16T10:48:40;15.70;99.90
12568;DHT22;6349;50.904;6.136;2022-09-16T10:51:00;15.60;99.90
12568;DHT22;6349;50.904;6.136;2022-09-16T10:53:01;15.50;99.90
12568;DHT22;6349;50.904;6.136;2022-09-16T10:55:22;15.40;99.90
12568;DHT22;6349;50.904;6.136;2022-09-16T10:57:32;15.30;99.90
12568;DHT22;6349;50.904;6.136;2022-09-16T10:59:33;15.00;99.90
12568;DHT22;6349;50.904;6.136;2022-09-16T11:01:54;14.80;99.90
12568;DHT22;6349;50.904;6.136;2022-09-16T11:04:21;14.70;99.90
12568;DHT22;6349;50.904;6.136;2022-09-16T11:17:09;14.70;99.90
12568;DHT22;6349;50.904;6.136;2022-09-16T11:19:46;14.60;99.90
12568;DHT22;6349;50.904;6.136;2022-09-16T11:27:16;14.60;99.90
12568;DHT22;6349;50.904;6.136;2022-09-16T11:29:33;14.50;99.90
12568;DHT22;6349;50.904;6.136;2022-09-16T11:34:51;14.40;99.90
12568;DHT22;6349;50.904;6.136;2022-09-16T11:37:00;14.20;99.90
12568;DHT22;6349;50.904;6.136;2022-09-16T11:39:17;14.10;99.90
12568;DHT22;6349;50.904;6.136;2022-09-16T11:41:54;14.00;99.90
12568;DHT22;6349;50.904;6.136;2022-09-16T11:46:52;14.00;99.90
12568;DHT22;6349;50.904;6.136;2022-09-16T12:01:31;14.00;99.90
12568;DHT22;6349;50.904;6.136;2022-09-16T12:03:44;14.30;99.90
12568;DHT22;6349;50.904;6.136;2022-09-16T12:05:52;14.30;99.90
12568;DHT22;6349;50.904;6.136;2022-09-16T12:08:02;14.40;99.90
12568;DHT22;6349;50.904;6.136;2022-09-16T12:10:13;14.50;99.90
12568;DHT22;6349;50.904;6.136;2022-09-16T12:12:18;14.60;99.90
12568;DHT22;6349;50.904;6.136;2022-09-16T12:14:39;14.70;99.90
12568;DHT22;6349;50.904;6.136;2022-09-16T12:16:46;14.70;99.90
12568;DHT22;6349;50.904;6.136;2022-09-16T12:18:51;14.40;99.90
12568;DHT22;6349;50.904;6.136;2022-09-16T12:21:02;14.00;99.90
12568;DHT22;6349;50.904;6.136;2022-09-16T12:23:16;13.80;99.90
12568;DHT22;6349;50.904;6.136;2022-09-16T12:25:25;13.60;99.90
12568;DHT22;6349;50.904;6.136;2022-09-16T12:27:49;13.40;99.90
12568;DHT22;6349;50.904;6.136;2022-09-16T12:29:57;13.30;99.90
12568;DHT22;6349;50.904;6.136;2022-09-16T12:32:06;13.20;99.90
12568;DHT22;6349;50.904;6.136;2022-09-16T12:34:15;13.20;99.90
12568;DHT22;6349;50.904;6.136;2022-09-16T12:36:23;13.20;99.90
12568;DHT22;6349;50.904;6.136;2022-09-16T12:38:25;13.00;99.90
12568;DHT22;6349;50.904;6.136;2022-09-16T12:40:28;13.00;99.90
12568;DHT22;6349;50.904;6.136;2022-09-16T12:44:58;13.00;99.90
12568;DHT22;6349;50.904;6.136;2022-09-16T12:47:26;13.00;99.90
12568;DHT22;6349;50.904;6.136;2022-09-16T12:49:55;12.90;99.90
12568;DHT22;6349;50.904;6.136;2022-09-16T12:52:20;12.90;99.90
12568;DHT22;6349;50.904;6.136;2022-09-16T12:57:44;13.10;99.90
12568;DHT22;6349;50.904;6.136;2022-09-16T13:00:14;13.20;99.90
12568;DHT22;6349;50.904;6.136;2022-09-16T13:02:22;13.40;99.90
12568;DHT22;6349;50.904;6.136;2022-09-16T13:04:38;13.50;99.90
12568;DHT22;6349;50.904;6.136;2022-09-16T13:06:46;13.60;99.90
12568;DHT22;6349;50.904;6.136;2022-09-16T13:08:47;13.70;99.90
12568;DHT22;6349;50.904;6.136;2022-09-16T13:10:59;13.70;99.90
12568;DHT22;6349;50.904;6.136;2022-09-16T13:13:02;13.80;99.90
12568;DHT22;6349;50.904;6.136;2022-09-16T13:15:05;13.90;99.90
12568;DHT22;6349;50.904;6.136;2022-09-16T13:17:09;14.00;99.90
12568;DHT22;6349;50.904;6.136;2022-09-16T13:19:40;14.20;99.90
12568;DHT22;6349;50.904;6.136;2022-09-16T13:21:44;14.30;99.90
12568;DHT22;6349;50.904;6.136;2022-09-16T13:23:48;14.40;99.90
12568;DHT22;6349;50.904;6.136;2022-09-16T13:26:08;14.50;99.90
12568;DHT22;6349;50.904;6.136;2022-09-16T13:30:36;14.60;99.90
12568;DHT22;6349;50.904;6.136;2022-09-16T13:35:01;14.70;99.90
12568;DHT22;6349;50.904;6.136;2022-09-16T13:37:02;14.90;99.90
12568;DHT22;6349;50.904;6.136;2022-09-16T13:39:26;14.90;99.90
12568;DHT22;6349;50.904;6.136;2022-09-16T13:46:45;14.80;99.90
12568;DHT22;6349;50.904;6.136;2022-09-16T13:48:41;14.90;99.90
12568;DHT22;6349;50.904;6.136;2022-09-16T13:50:46;15.00;99.90
12568;DHT22;6349;50.904;6.136;2022-09-16T13:52:50;15.00;99.90
12568;DHT22;6349;50.904;6.136;2022-09-16T13:54:54;15.00;99.90
12568;DHT22;6349;50.904;6.136;2022-09-16T13:57:13;14.90;99.90
12568;DHT22;6349;50.904;6.136;2022-09-16T13:59:36;14.90;99.90
12568;DHT22;6349;50.904;6.136;2022-09-16T14:01:58;14.80;99.90
12568;DHT22;6349;50.904;6.136;2022-09-16T14:09:27;14.70;99.90
12568;DHT22;6349;50.904;6.136;2022-09-16T14:14:09;14.60;99.90
12568;DHT22;6349;50.904;6.136;2022-09-16T14:16:21;14.60;99.90
12568;DHT22;6349;50.904;6.136;2022-09-16T14:18:33;14.70;99.90
12568;DHT22;6349;50.904;6.136;2022-09-16T14:20:34;14.70;99.90
12568;DHT22;6349;50.904;6.136;2022-09-16T14:22:34;14.70;99.90
12568;DHT22;6349;50.904;6.136;2022-09-16T14:24:38;14.70;99.90
12568;DHT22;6349;50.904;6.136;2022-09-16T14:26:49;14.70;99.90
12568;DHT22;6349;50.904;6.136;2022-09-16T14:29:01;14.90;99.90
12568;DHT22;6349;50.904;6.136;2022-09-16T14:31:07;15.10;99.90
12568;DHT22;6349;50.904;6.136;2022-09-16T14:33:10;15.20;99.90
12568;DHT22;6349;50.904;6.136;2022-09-16T14:35:18;15.40;99.90
12568;DHT22;6349;50.904;6.136;2022-09-16T14:37:20;15.50;99.90
12568;DHT22;6349;50.904;6.136;2022-09-16T14:39:25;15.50;99.90
12568;DHT22;6349;50.904;6.136;2022-09-16T14:41:34;15.50;99.90
12568;DHT22;6349;50.904;6.136;2022-09-16T14:43:37;15.50;99.90
12568;DHT22;6349;50.904;6.136;2022-09-16T14:45:44;15.50;99.90
12568;DHT22;6349;50.904;6.136;2022-09-16T14:47:47;15.40;99.90
12568;DHT22;6349;50.904;6.136;2022-09-16T14:49:51;15.40;99.90
12568;DHT22;6349;50.904;6.136;2022-09-16T14:51:56;15.30;99.90
12568;DHT22;6349;50.904;6.136;2022-09-16T14:53:58;15.10;99.90
12568;DHT22;6349;50.904;6.136;2022-09-16T14:55:59;14.90;99.90
12568;DHT22;6349;50.904;6.136;2022-09-16T14:58:00;14.70;99.90
12568;DHT22;6349;50.904;6.136;2022-09-16T15:00:03;14.40;99.90
12568;DHT22;6349;50.904;6.136;2022-09-16T15:02:19;14.40;99.90
12568;DHT22;6349;50.904;6.136;2022-09-16T15:04:27;14.10;99.90
12568;DHT22;6349;50.904;6.136;2022-09-16T15:06:34;14.00;99.90
12568;DHT22;6349;50.904;6.136;2022-09-16T15:08:44;13.90;99.90
12568;DHT22;6349;50.904;6.136;2022-09-16T15:10:48;13.90;99.90
12568;DHT22;6349;50.904;6.136;2022-09-16T15:12:57;13.80;99.90
12568;DHT22;6349;50.904;6.136;2022-09-16T15:15:05;13.80;99.90
12568;DHT22;6349;50.904;6.136;2022-09-16T15:17:06;13.70;99.90
12568;DHT22;6349;50.904;6.136;2022-09-16T15:19:21;13.70;99.90
12568;DHT22;6349;50.904;6.136;2022-09-16T15:21:26;13.70;99.90